Time;durP1;ratioP1;P1;durP2;ratioP2;P2;SDS_P1;SDS_P2;PMS_P1;PMS_P2;Temp;Humidity;BMP_temperature;BMP_pressure;BME280_temperature;BME280_humidity;BME280_pressure;Samples;Min_cycle;Max_cycle;Signal;HPM_P1;HPM_P2
2024/01/02 00:01:24;;;;;;;4.40;1.10;;;7.20;65.30;;;8.87;50.71;96960.09;5070488;28;20049;-54
2024/01/02 00:03:51;;;;;;;5.33;1.60;;;7.10;64.90;;;8.86;50.88;96947.00;5068939;28;20048;-54
2024/01/02 00:06:19;;;;;;;5.77;1.43;;;7.10;65.60;;;8.85;50.68;96950.63;5070742;28;20519;-55
2024/01/02 00:08:47;;;;;;;3.10;1.20;;;7.10;65.40;;;8.86;50.94;96936.38;5070351;28;20045;-54
2024/01/02 00:11:14;;;;;;;3.33;1.40;;;7.10;65.40;;;8.89;50.60;96935.22;5070411;28;20051;-54
2024/01/02 00:13:42;;;;;;;4.33;1.67;;;7.20;65.20;;;8.87;50.80;96925.56;5070199;28;20103;-54
2024/01/02 00:16:10;;;;;;;5.63;1.70;;;7.20;66.20;;;8.87;50.75;96919.44;5070643;28;20044;-55
2024/01/02 00:18:37;;;;;;;1.93;1.33;;;7.20;65.20;;;8.86;50.86;96920.47;5077733;28;20412;-54
2024/01/02 00:21:05;;;;;;;5.00;1.50;;;7.20;65.40;;;8.85;51.00;96914.31;5069892;28;20048;-56
2024/01/02 00:23:33;;;;;;;4.97;1.40;;;7.20;65.40;;;8.87;50.86;96916.78;5070461;28;20055;-55
2024/01/02 00:26:00;;;;;;;5.93;2.70;;;7.20;65.60;;;8.88;50.95;96907.84;5071976;28;20044;-55
2024/01/02 00:28:28;;;;;;;9.93;3.10;;;7.20;65.70;;;8.82;51.16;96908.50;5074330;28;20396;-52
2024/01/02 00:30:56;;;;;;;16.23;6.83;;;7.10;65.90;;;8.74;51.06;96898.72;5088224;28;20051;-54
2024/01/02 00:33:23;;;;;;;38.97;14.93;;;7.00;66.10;;;8.77;51.16;96901.03;5073985;28;20047;-54
2024/01/02 00:35:51;;;;;;;13.77;5.97;;;7.00;66.20;;;8.76;51.07;96898.56;5081303;28;20044;-54
2024/01/02 00:38:19;;;;;;;5.30;2.73;;;7.00;66.50;;;8.79;51.03;96900.88;5074206;28;20044;-54
2024/01/02 00:40:47;;;;;;;4.73;1.83;;;7.00;66.20;;;8.80;51.15;96895.41;5073645;28;20052;-54
2024/01/02 00:43:15;;;;;;;1.87;1.50;;;7.10;66.30;;;8.80;51.16;96889.25;5080871;28;20048;-54
2024/01/02 00:45:42;;;;;;;5.60;1.80;;;7.10;66.40;;;8.82;51.24;96879.28;5080763;28;20048;-56
2024/01/02 00:48:10;;;;;;;2.70;1.50;;;7.10;66.20;;;8.82;51.05;96877.50;5089540;28;20044;-54
2024/01/02 00:50:39;;;;;;;4.57;1.90;;;7.10;66.50;;;8.83;51.27;96868.50;5073503;28;20048;-55
2024/01/02 00:53:07;;;;;;;5.77;1.77;;;7.00;66.70;;;8.84;51.05;96862.22;5071972;28;20052;-55
2024/01/02 00:55:34;;;;;;;3.10;1.63;;;7.00;66.80;;;8.85;51.19;96861.22;5080846;28;20059;-54
2024/01/02 00:58:03;;;;;;;3.23;1.83;;;7.10;66.70;;;8.87;51.42;96855.75;5073779;28;20045;-55
2024/01/02 01:00:31;;;;;;;2.57;1.60;;;7.10;66.50;;;8.86;51.12;96856.75;5080655;28;20048;-54
2024/01/02 01:02:59;;;;;;;3.83;1.60;;;7.10;66.80;;;8.86;51.29;96852.25;5073517;28;20037;-54
2024/01/02 01:05:27;;;;;;;4.60;1.77;;;7.10;67.00;;;8.87;51.10;96842.47;5088439;28;20052;-53
2024/01/02 01:07:55;;;;;;;5.23;1.90;;;7.10;66.90;;;8.88;51.34;96833.53;5080672;28;20412;-55
2024/01/02 01:10:23;;;;;;;2.30;1.60;;;7.20;66.80;;;8.90;51.23;96833.31;5073302;28;20051;-50
2024/01/02 01:12:51;;;;;;;4.03;1.57;;;7.20;66.70;;;8.89;51.32;96837.81;5088472;28;20044;-54
2024/01/02 01:15:19;;;;;;;2.07;1.43;;;7.20;66.80;;;8.90;51.52;96838.63;5080523;28;20056;-55
2024/01/02 01:17:47;;;;;;;3.30;1.60;;;7.20;67.00;;;8.91;51.22;96832.34;5055169;28;20044;-53
2024/01/02 01:20:14;;;;;;;2.43;1.30;;;7.20;67.90;;;8.90;51.55;96826.22;5073013;28;20542;-54
2024/01/02 01:22:42;;;;;;;5.40;1.60;;;7.20;66.90;;;8.92;51.39;96828.69;5088639;28;20047;-55
2024/01/02 01:25:10;;;;;;;1.57;1.20;;;7.20;66.80;;;8.93;51.42;96830.34;5080308;28;20055;-53
2024/01/02 01:27:38;;;;;;;2.60;1.50;;;7.30;66.80;;;8.94;51.64;96818.75;5078127;28;20641;-54
2024/01/02 01:30:06;;;;;;;2.37;1.40;;;7.30;67.00;;;8.95;51.54;96809.75;5072990;28;20397;-54
2024/01/02 01:32:34;;;;;;;1.83;1.33;;;7.20;67.40;;;8.96;51.55;96808.78;5087803;28;20044;-53
2024/01/02 01:35:03;;;;;;;2.53;0.90;;;7.20;67.50;;;8.95;51.43;96799.16;5063578;28;20045;-54
2024/01/02 01:37:31;;;;;;;2.17;1.47;;;7.20;67.50;;;8.95;51.70;96789.34;5087819;28;20048;-55
2024/01/02 01:40:00;;;;;;;2.13;1.30;;;7.20;67.10;;;8.90;51.78;96791.72;5072534;28;20496;-55
2024/01/02 01:42:28;;;;;;;4.13;1.67;;;7.20;67.30;;;8.91;51.73;96784.56;5072004;28;20123;-54
2024/01/02 01:44:55;;;;;;;2.23;1.20;;;7.20;67.50;;;8.91;51.80;96782.72;5071438;28;20067;-53
2024/01/02 01:47:23;;;;;;;2.40;0.90;;;7.20;67.60;;;8.92;51.90;96773.78;5080235;28;20049;-55
2024/01/02 01:49:51;;;;;;;1.93;1.53;;;7.20;67.70;;;8.91;51.82;96777.41;5054680;28;20048;-54
2024/01/02 01:52:19;;;;;;;4.07;1.10;;;7.10;68.10;;;8.94;51.72;96773.63;5072495;28;20040;-56
2024/01/02 01:54:47;;;;;;;2.37;1.27;;;7.10;68.20;;;8.91;51.93;96763.31;5062738;28;20052;-53
2024/01/02 01:57:15;;;;;;;2.33;1.47;;;7.10;68.50;;;8.91;52.08;96769.44;5071211;28;20045;-55
2024/01/02 01:59:44;;;;;;;2.83;1.43;;;7.10;68.60;;;8.92;52.01;96757.84;5087247;28;20048;-55
2024/01/02 02:02:12;;;;;;;1.77;0.97;;;7.10;69.00;;;8.93;51.85;96758.66;5054221;28;20751;-52
2024/01/02 02:04:45;;;;;;;1.40;0.80;;;7.10;69.10;;;8.90;52.41;96756.34;5062589;28;20052;-54
2024/01/02 02:07:13;;;;;;;0.93;0.70;;;7.10;69.50;;;8.92;52.47;96749.88;5071166;28;20056;-54
2024/01/02 02:09:40;;;;;;;1.20;0.90;;;7.20;69.30;;;8.93;52.84;96746.22;5070043;28;20051;-54
2024/01/02 02:12:08;;;;;;;1.67;0.57;;;7.20;69.60;;;8.95;52.83;96736.25;5070051;28;20369;-54
2024/01/02 02:14:36;;;;;;;1.20;1.00;;;7.30;69.90;;;8.96;52.96;96726.47;5071189;28;20041;-54
2024/01/02 02:17:04;;;;;;;2.30;0.70;;;7.30;70.20;;;8.98;52.96;96727.13;5070733;28;20063;-55
2024/01/02 02:19:32;;;;;;;1.07;0.80;;;7.40;70.10;;;9.00;53.17;96711.84;5087521;28;20456;-52
2024/01/02 02:22:00;;;;;;;1.40;0.80;;;7.40;71.00;;;8.99;53.59;96718.16;5079172;28;20060;-56
2024/01/02 02:24:28;;;;;;;0.93;0.60;;;7.30;71.10;;;8.95;53.71;96714.19;5087259;28;20045;-53
2024/01/02 02:26:57;;;;;;;1.13;0.67;;;7.40;71.10;;;8.93;53.89;96709.06;5071811;28;20054;-56
2024/01/02 02:29:25;;;;;;;2.40;0.70;;;7.40;71.70;;;8.97;53.72;96706.88;5087356;28;20067;-55
2024/01/02 02:31:53;;;;;;;3.83;0.93;;;7.40;71.60;;;9.00;54.16;96702.06;5070998;28;20603;-54
2024/01/02 02:34:20;;;;;;;0.43;0.43;;;7.40;72.00;;;8.96;54.11;96684.00;5070181;28;20048;-54
2024/01/02 02:36:48;;;;;;;0.80;0.67;;;7.40;72.40;;;9.02;54.17;96675.34;5070525;28;20044;-53
2024/01/02 02:39:16;;;;;;;0.70;0.50;;;7.40;71.80;;;9.03;54.37;96661.91;5071611;28;20051;-55
2024/01/02 02:41:43;;;;;;;2.23;0.73;;;7.50;72.20;;;9.01;54.53;96669.19;5071731;28;20067;-55
2024/01/02 02:44:11;;;;;;;1.10;0.83;;;7.50;72.40;;;9.06;54.31;96660.72;5071605;28;20041;-55
2024/01/02 02:46:38;;;;;;;1.57;0.60;;;7.50;72.70;;;9.09;54.58;96659.53;5071862;28;20041;-55
2024/01/02 02:49:06;;;;;;;0.70;0.67;;;7.50;72.60;;;9.05;54.62;96653.72;5069199;28;20047;-56
2024/01/02 02:51:34;;;;;;;0.60;0.60;;;7.50;73.20;;;9.06;54.63;96650.91;5071539;28;20055;-55
2024/01/02 02:54:03;;;;;;;3.90;0.80;;;7.50;72.90;;;9.07;54.89;96649.91;5069672;28;20052;-52
2024/01/02 02:56:30;;;;;;;0.67;0.50;;;7.50;72.80;;;9.11;54.66;96649.56;5071680;28;20049;-55
2024/01/02 02:58:58;;;;;;;2.90;1.07;;;7.50;72.90;;;9.12;54.96;96643.25;5071216;28;20416;-54
2024/01/02 03:01:26;;;;;;;0.87;0.50;;;7.60;73.20;;;9.15;54.78;96637.56;5071495;28;20044;-55
2024/01/02 03:03:53;;;;;;;2.07;0.80;;;7.60;73.00;;;9.14;54.82;96630.63;5069701;28;20048;-56
2024/01/02 03:06:21;;;;;;;0.50;0.50;;;7.60;72.80;;;9.13;54.80;96627.16;5071158;28;20492;-55
2024/01/02 03:08:49;;;;;;;0.40;0.40;;;7.60;73.10;;;9.18;54.95;96619.47;5069193;28;20428;-56
2024/01/02 03:11:16;;;;;;;0.70;0.57;;;7.70;72.80;;;9.23;54.90;96619.75;5071223;28;20044;-55
2024/01/02 03:13:44;;;;;;;0.40;0.40;;;7.70;73.60;;;9.30;55.23;96617.22;5070879;28;20066;-56
2024/01/02 03:16:12;;;;;;;1.50;0.90;;;7.70;74.00;;;9.32;55.09;96601.09;5071277;28;20519;-55
2024/01/02 03:18:40;;;;;;;1.33;0.70;;;7.70;74.10;;;9.30;55.15;96592.50;5071546;28;20044;-56
2024/01/02 03:21:10;;;;;;;0.87;0.50;;;7.70;74.10;;;9.32;55.09;96591.28;5068913;28;20049;-55
2024/01/02 03:23:38;;;;;;;1.30;0.70;;;7.70;74.10;;;9.29;55.01;96581.03;5071012;28;20060;-56
2024/01/02 03:26:06;;;;;;;1.20;0.90;;;7.60;74.20;;;9.30;55.38;96565.94;5071079;28;20067;-56
2024/01/02 03:28:34;;;;;;;2.13;0.70;;;7.50;75.20;;;9.25;55.39;96567.28;5070092;28;20071;-56
2024/01/02 03:31:03;;;;;;;1.17;0.70;;;7.50;75.90;;;9.24;55.38;96562.97;5070140;28;20044;-55
2024/01/02 03:33:31;;;;;;;2.23;0.63;;;7.40;76.20;;;9.23;55.54;96553.38;5069494;28;20051;-56
2024/01/02 03:35:59;;;;;;;1.27;0.90;;;7.40;76.50;;;9.24;55.67;96557.66;5071101;28;20036;-55
2024/01/02 03:38:26;;;;;;;1.37;0.80;;;7.40;76.90;;;9.22;55.61;96549.06;5071050;28;20049;-56
2024/01/02 03:40:54;;;;;;;1.70;0.77;;;7.40;77.00;;;9.20;55.58;96540.44;5069209;28;20049;-54
2024/01/02 03:43:22;;;;;;;2.07;0.80;;;7.40;77.30;;;9.15;55.72;96542.81;5070681;28;20047;-54
2024/01/02 03:45:49;;;;;;;1.40;0.80;;;7.20;78.00;;;9.09;56.22;96551.47;5070736;28;20044;-55
2024/01/02 03:48:17;;;;;;;2.97;0.80;;;7.20;78.60;;;9.04;56.17;96530.78;5070978;28;20041;-56
2024/01/02 03:50:45;;;;;;;1.70;0.63;;;7.20;78.70;;;9.01;56.51;96522.34;5069440;28;20107;-56
2024/01/02 03:53:13;;;;;;;0.87;0.70;;;7.10;79.10;;;9.01;56.37;96527.66;5070982;28;20268;-56
2024/01/02 03:55:41;;;;;;;0.93;0.80;;;7.10;79.70;;;8.98;56.54;96517.41;5070909;28;20048;-54
2024/01/02 03:58:08;;;;;;;1.60;0.87;;;7.00;79.70;;;8.95;56.57;96515.91;5070849;28;20056;-55
2024/01/02 04:00:36;;;;;;;0.97;0.83;;;7.00;80.00;;;8.96;56.71;96500.84;5071726;28;20496;-55
2024/01/02 04:03:04;;;;;;;0.93;0.63;;;7.10;80.40;;;8.95;57.21;96502.66;5074295;28;20480;-56
2024/01/02 04:05:32;;;;;;;1.37;0.70;;;7.10;80.50;;;8.92;57.04;96497.72;5075050;28;20056;-53
2024/01/02 04:08:00;;;;;;;0.80;0.70;;;7.10;80.50;;;8.90;57.15;96502.38;5074072;28;20052;-54
2024/01/02 04:10:27;;;;;;;0.70;0.50;;;7.10;80.90;;;8.85;57.54;96500.25;5074357;28;20078;-56
2024/01/02 04:12:55;;;;;;;0.70;0.70;;;7.10;81.60;;;8.82;57.66;96497.97;5074456;28;20041;-55
2024/01/02 04:15:23;;;;;;;1.40;0.60;;;7.00;81.40;;;8.75;58.09;96490.88;5074687;28;20029;-55
2024/01/02 04:17:50;;;;;;;0.63;0.50;;;7.00;82.60;;;8.71;58.39;96486.94;5074348;28;20460;-56
2024/01/02 04:20:18;;;;;;;0.60;0.60;;;7.00;82.80;;;8.72;58.58;96473.47;5074215;28;20036;-54
2024/01/02 04:22:46;;;;;;;0.40;0.40;;;7.00;83.20;;;8.73;58.59;96459.22;5074388;28;20044;-53
2024/01/02 04:25:14;;;;;;;0.60;0.50;;;7.00;83.20;;;8.72;58.85;96452.25;5074370;28;20044;-55
2024/01/02 04:27:42;;;;;;;0.67;0.60;;;7.00;83.40;;;8.69;59.17;96446.50;5072201;28;20052;-55
2024/01/02 04:30:11;;;;;;;1.20;0.57;;;7.00;84.20;;;8.66;59.29;96427.25;5073821;28;20137;-54
2024/01/02 04:32:39;;;;;;;0.60;0.60;;;6.90;85.00;;;8.63;59.42;96418.84;5074208;28;20097;-55
2024/01/02 04:35:08;;;;;;;0.60;0.60;;;6.90;85.20;;;8.65;59.25;96411.53;5073354;28;20045;-55
2024/01/02 04:37:35;;;;;;;1.40;0.40;;;6.90;85.00;;;8.66;59.45;96415.81;5073597;28;20048;-54
2024/01/02 04:40:05;;;;;;;0.60;0.60;;;7.00;84.30;;;8.62;59.47;96403.94;5073889;28;20416;-52
2024/01/02 04:42:36;;;;;;;0.70;0.50;;;6.90;85.00;;;8.56;59.90;96408.13;5072741;28;20488;-52
2024/01/02 04:45:05;;;;;;;0.60;0.60;;;6.90;86.00;;;8.61;59.74;96396.97;5073056;28;20392;-54
2024/01/02 04:47:33;;;;;;;1.57;0.67;;;6.90;85.70;;;8.60;59.79;96396.13;5073763;28;20049;-55
2024/01/02 04:50:04;;;;;;;0.60;0.60;;;6.90;85.50;;;8.62;59.96;96396.78;5073373;28;20055;-55
2024/01/02 04:52:32;;;;;;;1.07;0.70;;;6.90;85.10;;;8.61;59.91;96400.44;5073951;28;20048;-52
2024/01/02 04:54:59;;;;;;;0.80;0.50;;;6.90;85.20;;;8.57;60.33;96396.50;5073854;28;20519;-52
2024/01/02 04:57:27;;;;;;;0.70;0.70;;;6.90;86.00;;;8.57;59.94;96372.63;5073905;28;20416;-52
2024/01/02 04:59:55;;;;;;;0.73;0.50;;;6.80;86.10;;;8.56;60.41;96372.81;5072006;28;20051;-55
2024/01/02 05:02:24;;;;;;;1.10;0.70;;;6.80;86.60;;;8.54;60.27;96372.97;5073759;28;20040;-51
2024/01/02 05:04:51;;;;;;;0.57;0.47;;;6.80;86.40;;;8.55;60.28;96363.19;5073604;28;20056;-55
2024/01/02 05:07:19;;;;;;;2.03;0.70;;;6.90;86.30;;;8.53;60.59;96358.09;5073394;28;20041;-54
2024/01/02 05:09:47;;;;;;;1.77;0.80;;;6.90;86.40;;;8.53;60.51;96344.81;5073133;28;20051;-51
2024/01/02 05:12:15;;;;;;;1.07;0.70;;;6.90;86.50;;;8.57;60.71;96345.25;5072620;28;20036;-52
2024/01/02 05:14:43;;;;;;;1.40;0.63;;;6.90;86.20;;;8.60;60.52;96344.91;5071734;28;20068;-51
2024/01/02 05:17:11;;;;;;;0.57;0.57;;;6.90;86.40;;;8.59;60.71;96330.84;5073418;28;20496;-52
2024/01/02 05:19:38;;;;;;;1.30;0.70;;;7.00;86.30;;;8.56;60.87;96331.19;5073118;28;20063;-49
2024/01/02 05:22:06;;;;;;;1.80;0.50;;;6.90;87.00;;;8.59;60.74;96336.13;5073395;28;20420;-51
2024/01/02 05:24:34;;;;;;;1.17;0.77;;;6.90;86.70;;;8.62;60.46;96332.28;5073194;28;20055;-54
2024/01/02 05:27:02;;;;;;;0.70;0.70;;;6.90;87.00;;;8.62;60.69;96325.16;5073191;28;20053;-55
2024/01/02 05:29:29;;;;;;;0.30;0.30;;;6.90;86.60;;;8.59;61.07;96327.38;5072879;28;20041;-56
2024/01/02 05:31:57;;;;;;;0.50;0.50;;;6.90;87.00;;;8.62;61.08;96332.28;5072693;28;20518;-55
2024/01/02 05:34:26;;;;;;;0.40;0.40;;;7.00;86.70;;;8.62;60.90;96327.00;5073063;28;20415;-55
2024/01/02 05:36:54;;;;;;;1.50;0.50;;;7.00;87.10;;;8.63;61.02;96320.69;5072983;28;20412;-55
2024/01/02 05:39:22;;;;;;;1.03;0.63;;;7.00;87.20;;;8.64;61.17;96324.97;5072682;28;20040;-54
2024/01/02 05:41:49;;;;;;;1.40;0.57;;;7.00;87.10;;;8.67;61.05;96312.19;5073191;28;20045;-54
2024/01/02 05:44:17;;;;;;;0.73;0.50;;;7.00;86.80;;;8.74;60.68;96311.44;5072771;28;20256;-56
2024/01/02 05:46:44;;;;;;;0.40;0.40;;;7.10;86.90;;;8.70;61.06;96312.81;5073104;28;20049;-55
2024/01/02 05:49:12;;;;;;;0.50;0.50;;;7.00;87.30;;;8.70;61.22;96304.84;5072294;28;20048;-54
2024/01/02 05:51:40;;;;;;;0.50;0.50;;;7.00;87.50;;;8.74;61.23;96295.53;5072910;28;20052;-56
2024/01/02 05:54:07;;;;;;;0.87;0.70;;;7.10;86.80;;;8.73;61.09;96293.88;5072411;28;20047;-51
2024/01/02 05:56:35;;;;;;;0.77;0.67;;;7.10;86.90;;;8.73;61.21;96299.19;5072805;28;20468;-54
2024/01/02 05:59:03;;;;;;;6.17;1.10;;;7.10;86.70;;;8.68;61.29;96289.13;5071208;28;20040;-54
2024/01/02 06:01:31;;;;;;;0.73;0.70;;;7.00;87.00;;;8.63;61.25;96286.19;5072540;28;20051;-55
2024/01/02 06:03:58;;;;;;;1.47;0.70;;;7.00;87.10;;;8.66;61.36;96283.16;5072421;28;20044;-54
2024/01/02 06:06:26;;;;;;;1.23;0.70;;;7.00;88.10;;;8.65;61.29;96290.31;5063947;28;20476;-54
2024/01/02 06:08:54;;;;;;;3.20;1.33;;;7.00;87.50;;;8.64;61.32;96272.72;5072141;28;20048;-55
2024/01/02 06:11:21;;;;;;;0.97;0.80;;;7.00;87.70;;;8.68;61.23;96278.50;5072316;28;20499;-54
2024/01/02 06:13:49;;;;;;;1.67;0.80;;;7.00;87.30;;;8.69;61.49;96282.81;5072311;28;20037;-54
2024/01/02 06:16:16;;;;;;;0.60;0.60;;;6.90;87.70;;;8.69;61.50;96272.19;5072112;28;20500;-53
2024/01/02 06:18:44;;;;;;;1.10;0.90;;;7.00;87.70;;;8.74;61.17;96274.28;5072340;28;20392;-52
2024/01/02 06:21:12;;;;;;;2.80;0.80;;;7.00;87.60;;;8.69;61.71;96282.81;5070564;28;20048;-53
2024/01/02 06:23:40;;;;;;;0.77;0.53;;;7.00;88.00;;;8.74;61.19;96277.75;5070817;28;20055;-53
2024/01/02 06:26:19;;;;;;;0.70;0.70;;;7.10;87.30;;;8.70;61.56;96259.75;5072053;28;20044;-54
2024/01/02 06:28:47;;;;;;;0.73;0.50;;;7.10;87.50;;;8.75;61.25;96250.25;5072171;28;20051;-54
2024/01/02 06:31:15;;;;;;;0.60;0.60;;;7.10;87.70;;;8.76;61.60;96237.78;5071967;28;20045;-51
2024/01/02 06:33:44;;;;;;;0.70;0.50;;;7.10;87.40;;;8.74;61.67;96237.97;5070560;28;20048;-54
2024/01/02 06:36:13;;;;;;;0.60;0.60;;;7.10;87.80;;;8.76;61.60;96241.28;5071222;28;20041;-54
2024/01/02 06:38:40;;;;;;;0.40;0.40;;;7.10;87.90;;;8.70;62.06;96246.47;5071916;28;20051;-54
2024/01/02 06:41:09;;;;;;;0.70;0.70;;;7.10;88.20;;;8.79;61.67;96240.09;5071598;28;20059;-53
2024/01/02 06:43:37;;;;;;;0.87;0.67;;;7.20;87.80;;;8.78;61.81;96239.25;5070741;28;20518;-52
2024/01/02 06:46:04;;;;;;;0.60;0.60;;;7.20;87.50;;;8.74;62.13;96235.31;5071935;28;20044;-54
2024/01/02 06:48:32;;;;;;;0.40;0.40;;;7.30;87.70;;;8.76;62.35;96229.81;5071501;28;20397;-52
2024/01/02 06:50:59;;;;;;;0.40;0.40;;;7.30;87.70;;;8.76;62.52;96229.81;5069741;28;20053;-54
2024/01/02 06:53:27;;;;;;;0.37;0.37;;;7.30;88.20;;;8.80;62.61;96220.47;5071391;28;20048;-52
2024/01/02 06:55:55;;;;;;;0.30;0.30;;;7.30;88.20;;;8.71;63.13;96211.00;5071480;28;20048;-53
2024/01/02 06:58:22;;;;;;;0.60;0.60;;;7.30;88.70;;;8.79;62.89;96222.31;5071322;28;20048;-50
2024/01/02 07:00:50;;;;;;;0.30;0.30;;;7.40;88.70;;;8.73;63.17;96214.28;5071241;28;20041;-52
2024/01/02 07:03:18;;;;;;;0.87;0.70;;;7.40;90.00;;;8.73;63.30;96204.50;5069696;28;20048;-50
2024/01/02 07:05:46;;;;;;;0.30;0.30;;;7.40;88.80;;;8.74;63.40;96200.81;5071149;28;20044;-52
2024/01/02 07:08:14;;;;;;;0.50;0.50;;;7.40;88.60;;;8.77;63.43;96213.72;5071155;28;20055;-52
2024/01/02 07:10:41;;;;;;;1.07;0.87;;;7.40;88.00;;;8.87;63.36;96216.09;5069907;28;20044;-54
2024/01/02 07:13:09;;;;;;;1.00;0.60;;;7.50;88.10;;;8.95;62.75;96212.50;5070324;28;20044;-54
2024/01/02 07:15:37;;;;;;;7.00;2.57;;;7.60;87.20;;;8.94;63.08;96197.59;5071306;28;20412;-53
2024/01/02 07:18:04;;;;;;;3.00;1.40;;;7.60;86.90;;;9.01;62.74;96212.56;5071256;28;20040;-54
2024/01/02 07:20:33;;;;;;;0.40;0.40;;;7.70;86.60;;;8.99;63.05;96225.22;5062697;28;20064;-54
2024/01/02 07:23:00;;;;;;;0.87;0.60;;;7.70;86.70;;;9.02;62.68;96216.88;5070990;28;20491;-51
2024/01/02 07:25:28;;;;;;;0.30;0.30;;;7.70;86.40;;;9.05;62.53;96211.22;5070734;28;20526;-54
2024/01/02 07:27:56;;;;;;;0.60;0.50;;;7.70;86.40;;;8.99;62.73;96219.09;5068444;28;20053;-51
2024/01/02 07:30:23;;;;;;;0.50;0.50;;;7.70;86.50;;;9.09;62.67;96216.97;5069812;28;20045;-52
2024/01/02 07:32:51;;;;;;;0.53;0.50;;;7.70;86.20;;;9.14;62.67;96213.75;5071053;28;20095;-53
2024/01/02 07:35:19;;;;;;;0.20;0.20;;;7.80;85.60;;;9.21;62.37;96219.97;5069550;28;20041;-55
2024/01/02 07:37:48;;;;;;;1.57;0.43;;;7.90;85.40;;;9.30;62.38;96218.81;5071204;28;20036;-53
2024/01/02 07:40:16;;;;;;;0.30;0.30;;;7.90;85.40;;;9.31;62.20;96219.66;5070373;28;20060;-51
2024/01/02 07:42:44;;;;;;;1.03;0.40;;;7.90;85.00;;;9.31;62.16;96228.44;5070638;28;20404;-55
2024/01/02 07:45:13;;;;;;;0.93;0.37;;;7.90;84.60;;;9.32;62.13;96227.44;5071025;28;20053;-52
2024/01/02 07:47:40;;;;;;;0.63;0.63;;;7.90;85.10;;;9.33;62.25;96228.28;5070798;28;20488;-52
2024/01/02 07:50:08;;;;;;;0.60;0.37;;;8.00;84.90;;;9.41;61.83;96233.47;5070345;28;20048;-50
2024/01/02 07:52:37;;;;;;;0.30;0.30;;;8.10;84.90;;;9.45;61.57;96232.06;5070867;28;20052;-54
2024/01/02 07:55:05;;;;;;;0.30;0.30;;;8.10;84.20;;;9.42;61.87;96229.78;5070670;28;20040;-51
2024/01/02 07:57:33;;;;;;;0.20;0.20;;;8.10;84.20;;;9.37;62.18;96224.22;5068985;28;20427;-54
2024/01/02 08:00:01;;;;;;;0.53;0.30;;;8.10;84.30;;;9.38;61.80;96242.63;5064186;28;20064;-54
2024/01/02 08:02:38;;;;;;;0.57;0.50;;;8.10;83.90;;;9.38;62.25;96228.50;5068804;28;20044;-52
2024/01/02 08:05:06;;;;;;;0.37;0.37;;;8.10;84.30;;;9.38;62.41;96233.81;5074935;28;20045;-55
2024/01/02 08:07:34;;;;;;;0.30;0.30;;;8.10;84.80;;;9.37;62.28;96232.19;5070318;28;20037;-54
2024/01/02 08:10:01;;;;;;;0.30;0.30;;;8.10;84.80;;;9.43;62.37;96232.25;5069085;28;20495;-52
2024/01/02 08:12:29;;;;;;;0.47;0.40;;;8.20;84.60;;;9.38;62.29;96231.16;5086945;28;20521;-55
2024/01/02 08:14:57;;;;;;;0.67;0.40;;;8.10;84.70;;;9.45;62.11;96229.41;5070559;28;20055;-54
2024/01/02 08:17:24;;;;;;;0.50;0.40;;;8.20;84.60;;;9.46;62.54;96231.88;5070210;28;20037;-53
2024/01/02 08:19:52;;;;;;;0.47;0.40;;;8.20;84.80;;;9.47;62.24;96240.66;5070234;28;20048;-53
2024/01/02 08:22:20;;;;;;;0.43;0.40;;;8.20;84.40;;;9.52;62.46;96235.63;5070214;28;20400;-54
2024/01/02 08:24:48;;;;;;;0.40;0.40;;;8.30;84.60;;;9.53;62.28;96225.81;5070605;28;20492;-50
2024/01/02 08:27:16;;;;;;;0.20;0.20;;;8.30;83.90;;;9.53;62.28;96245.22;5070428;28;20412;-50
2024/01/02 08:29:43;;;;;;;0.43;0.43;;;8.30;83.90;;;9.56;62.27;96244.03;5070167;28;20051;-55
2024/01/02 08:32:13;;;;;;;1.47;0.40;;;8.30;83.60;;;9.51;62.48;96235.81;5067669;28;20506;-51
2024/01/02 08:34:41;;;;;;;0.20;0.20;;;8.30;84.30;;;9.52;62.23;96245.41;5061080;28;20037;-52
2024/01/02 08:37:08;;;;;;;0.30;0.30;;;8.30;84.50;;;9.53;62.56;96239.09;5070367;28;20051;-54
2024/01/02 08:39:36;;;;;;;1.63;0.50;;;8.30;84.50;;;9.62;62.04;96243.28;5070087;28;20426;-53
2024/01/02 08:42:04;;;;;;;0.40;0.40;;;8.40;84.30;;;9.62;61.98;96241.44;5069277;28;20068;-51
2024/01/02 08:44:33;;;;;;;0.40;0.40;;;8.40;84.40;;;9.72;61.85;96237.66;5070045;28;20044;-53
2024/01/02 08:47:01;;;;;;;0.40;0.40;;;8.40;84.40;;;9.71;62.22;96246.63;5071548;28;20094;-53
2024/01/02 08:49:29;;;;;;;0.53;0.50;;;8.40;84.10;;;9.66;61.86;96244.53;5073754;28;20415;-54
2024/01/02 08:51:57;;;;;;;0.47;0.43;;;8.40;84.00;;;9.71;61.69;96239.47;5074039;28;20044;-55
2024/01/02 08:54:24;;;;;;;0.20;0.20;;;8.40;83.90;;;9.74;61.75;96239.09;5073487;28;20056;-53
2024/01/02 08:56:52;;;;;;;0.47;0.40;;;8.50;83.70;;;9.68;62.04;96247.84;5073420;28;20468;-54
2024/01/02 08:59:19;;;;;;;0.30;0.30;;;8.40;83.70;;;9.74;62.05;96248.91;5072227;28;20043;-51
2024/01/02 09:01:53;;;;;;;0.40;0.40;;;8.50;83.60;;;9.82;61.85;96249.59;5074160;28;20029;-54
2024/01/02 09:04:23;;;;;;;;;;;8.50;83.70;;;9.87;61.93;96251.69;5074019;28;20040;-55
2024/01/02 09:06:51;;;;;;;0.30;0.30;;;8.50;82.80;;;9.94;61.49;96268.50;5072339;28;19920;-53
2024/01/02 09:09:19;;;;;;;0.40;0.40;;;8.50;82.90;;;9.95;61.38;96280.81;5071493;28;20389;-55
2024/01/02 09:11:47;;;;;;;0.20;0.20;;;8.60;82.40;;;9.97;60.94;96268.13;5073584;28;20044;-55
2024/01/02 09:14:15;;;;;;;0.30;0.30;;;8.60;82.50;;;10.05;60.71;96277.81;5073462;28;20507;-54
2024/01/02 09:16:45;;;;;;;0.47;0.47;;;8.70;82.20;;;10.01;60.94;96274.72;5073003;28;20393;-55
2024/01/02 09:19:13;;;;;;;0.30;0.30;;;8.70;81.70;;;10.01;60.81;96268.59;5071954;28;20047;-54
2024/01/02 09:21:43;;;;;;;1.10;0.60;;;8.70;81.80;;;10.08;61.03;96271.28;5073341;28;20041;-54
2024/01/02 09:24:14;;;;;;;1.00;0.80;;;8.80;82.00;;;10.08;60.99;96282.78;5073307;28;20056;-54
2024/01/02 09:26:46;;;;;;;0.50;0.50;;;8.80;81.70;;;10.05;60.84;96285.81;5073288;28;20052;-51
2024/01/02 09:29:14;;;;;;;0.30;0.30;;;8.80;81.50;;;10.14;60.44;96279.34;5073020;28;20044;-54
2024/01/02 09:31:41;;;;;;;0.50;0.50;;;8.80;80.90;;;10.17;60.82;96283.44;5070883;28;20052;-55
2024/01/02 09:34:10;;;;;;;0.60;0.60;;;8.90;80.50;;;10.19;61.05;96286.72;5073170;28;20052;-53
2024/01/02 09:36:38;;;;;;;0.60;0.60;;;8.90;80.50;;;10.19;60.69;96276.91;5073018;28;20049;-50
2024/01/02 09:39:06;;;;;;;9.93;5.07;;;8.90;81.00;;;10.24;60.54;96281.66;5071620;28;20515;-53
2024/01/02 09:41:55;;;;;;;2.63;1.70;;;8.90;80.90;;;10.29;60.70;96281.09;5072981;28;20459;-54
2024/01/02 09:44:48;;;;;;;0.60;0.60;;;9.00;81.10;;;10.36;60.13;96289.97;5072471;28;20048;-51
2024/01/02 09:47:44;;;;;;;0.77;0.67;;;9.00;80.60;;;10.41;60.51;96291.06;5073060;28;20044;-54
2024/01/02 09:50:27;;;;;;;0.83;0.83;;;9.10;80.70;;;10.36;60.43;96274.00;5078221;28;20041;-58
2024/01/02 09:53:29;;;;;;;2.23;1.70;;;9.10;80.60;;;10.40;60.29;96268.09;5065337;28;20441;-58
2024/01/02 09:56:16;;;;;;;1.63;0.90;;;9.10;80.50;;;10.35;60.30;96291.81;5064723;28;20041;-58
2024/01/02 09:59:31;;;;;;;0.87;0.60;;;9.10;80.10;;;10.40;60.40;96285.91;5087753;28;20056;-57
2024/01/02 10:02:29;;;;;;;1.80;0.80;;;9.10;80.50;;;10.43;60.27;96290.84;5065551;28;20056;-58
2024/01/02 10:05:27;;;;;;;1.80;0.90;;;9.10;80.30;;;10.43;60.02;96277.56;5064478;28;20040;-59
2024/01/02 10:08:11;;;;;;;2.33;1.00;;;9.20;79.70;;;10.41;60.66;96287.53;5061175;28;20052;-59
2024/01/02 10:11:10;;;;;;;1.60;1.45;;;9.20;80.30;;;10.44;60.27;96279.19;5063320;28;20063;-59
2024/01/02 10:13:50;;;;;;;2.47;1.10;;;9.20;80.20;;;10.52;60.10;96279.03;5064415;28;20051;-59
2024/01/02 10:16:46;;;;;;;0.90;0.70;;;9.30;80.30;;;10.54;60.03;96277.00;5064282;28;20041;-59
2024/01/02 10:19:50;;;;;;;0.57;0.50;;;9.40;79.50;;;10.51;60.34;96266.75;5066021;28;20047;-58
2024/01/02 10:22:37;;;;;;;0.47;0.47;;;9.40;79.30;;;10.58;60.33;96307.53;5032125;28;20394;-59
2024/01/02 10:25:08;;;;;;;0.33;0.33;;;9.40;79.10;;;10.63;60.04;96280.34;5064673;28;20095;-58
2024/01/02 10:28:08;;;;;;;0.70;0.50;;;9.40;79.20;;;10.60;60.05;96260.28;5072084;28;20424;-59
2024/01/02 10:30:48;;;;;;;0.77;0.70;;;9.40;79.10;;;10.63;60.12;96264.38;5068194;28;20040;-58
2024/01/02 10:34:04;;;;;;;1.20;1.10;;;9.50;79.30;;;10.64;59.89;96245.56;5071946;28;20048;-58
2024/01/02 10:36:40;;;;;;;0.50;0.50;;;9.50;78.90;;;10.68;60.09;96255.78;5066921;28;20393;-59
2024/01/02 10:39:18;;;;;;;0.40;0.40;;;9.50;79.20;;;10.75;59.71;96244.16;5071096;28;20047;-59
2024/01/02 10:42:09;;;;;;;0.43;0.43;;;9.50;79.40;;;10.76;59.59;96245.81;5070895;28;20048;-58
2024/01/02 10:45:27;;;;;;;0.83;0.60;;;9.50;79.40;;;10.74;60.11;96236.38;5071781;28;20052;-58